createdAt,value
2023-01-19T00:04:35.579Z,78.83
2023-01-19T00:10:58.595Z,78.46
2023-01-19T00:17:18.685Z,78.11
2023-01-19T00:23:41.635Z,78.1
2023-01-19T00:30:01.593Z,78.1
2023-01-19T00:36:24.632Z,78.36
2023-01-19T00:42:44.732Z,78.38
2023-01-19T00:49:07.623Z,78.58
2023-01-19T00:55:27.601Z,78.68
2023-01-19T01:01:50.686Z,78.79
2023-01-19T01:08:10.660Z,79.47
2023-01-19T01:14:33.592Z,79.68
2023-01-19T01:20:56.034Z,79.7
2023-01-19T01:27:16.643Z,79.71
2023-01-19T01:33:40.186Z,79.65
2023-01-19T01:39:59.666Z,79.81
2023-01-19T01:46:19.666Z,80
2023-01-19T01:52:42.675Z,80.31
2023-01-19T01:59:02.599Z,80.51
2023-01-19T02:05:25.725Z,80.55
2023-01-19T02:11:45.690Z,80.57
2023-01-19T02:18:08.619Z,81.14
2023-01-19T02:24:28.612Z,81.44
2023-01-19T02:30:51.701Z,81.78
2023-01-19T02:37:11.555Z,82.33
2023-01-19T02:43:34.678Z,82.25
2023-01-19T02:49:54.620Z,81.82
2023-01-19T02:56:17.707Z,81.44
2023-01-19T03:02:37.744Z,80.69
2023-01-19T03:09:00.706Z,80.12
2023-01-19T03:15:20.597Z,79.97
2023-01-19T03:21:43.582Z,79.66
2023-01-19T03:28:03.613Z,79.62
2023-01-19T03:34:26.606Z,79.75
2023-01-19T03:40:46.632Z,79.63
2023-01-19T03:47:09.639Z,79.74
2023-01-19T03:53:29.728Z,79.58
2023-01-19T03:59:52.688Z,79.29
2023-01-19T04:23:16.101Z,78.38
2023-01-19T04:29:35.567Z,77.95
2023-01-19T04:35:58.578Z,78
2023-01-19T04:42:18.642Z,77.94
2023-01-19T04:48:42.270Z,77.61
2023-01-19T04:55:01.605Z,77.4
2023-01-19T05:01:24.817Z,77.43
2023-01-19T05:07:44.557Z,77.57
2023-01-19T05:14:07.610Z,77.42
2023-01-19T05:20:27.652Z,77.33
2023-01-19T05:26:50.602Z,77.14
2023-01-19T05:33:10.690Z,77.13
2023-01-19T05:39:33.757Z,77.2
2023-01-19T05:45:53.596Z,76.87
2023-01-19T05:52:16.575Z,76.77
2023-01-19T05:58:36.609Z,76.79
2023-01-19T06:04:59.593Z,77.46
2023-01-19T06:11:19.585Z,79.02
2023-01-19T06:17:42.701Z,79.92
2023-01-19T06:24:02.649Z,81.62
2023-01-19T06:30:25.571Z,83.86
2023-01-19T06:36:45.858Z,85.58
2023-01-19T06:43:08.560Z,86.77
2023-01-19T06:49:28.563Z,87.62
2023-01-19T06:55:51.685Z,88.49
2023-01-19T07:02:27.179Z,88.86
2023-01-19T07:08:34.630Z,89.3
2023-01-19T07:14:54.747Z,89.65
2023-01-19T07:21:17.666Z,89.71
2023-01-19T07:27:37.567Z,89.66
2023-01-19T07:34:00.657Z,89.76
2023-01-19T07:40:21.569Z,89.63
2023-01-19T07:46:43.660Z,89.67
2023-01-19T07:53:03.670Z,89.59
2023-01-19T07:59:26.658Z,89.71
2023-01-19T08:05:46.725Z,89.86
2023-01-19T08:12:09.724Z,89.98
2023-01-19T08:18:29.578Z,90.2
2023-01-19T08:24:52.599Z,90.37
2023-01-19T08:31:20.324Z,90.46
2023-01-19T08:37:35.559Z,90.58
2023-01-19T08:43:55.627Z,90.7
2023-01-19T08:50:18.688Z,90.55
2023-01-19T08:56:38.559Z,90.29
2023-01-19T09:03:02.055Z,90.04
2023-01-19T09:09:21.641Z,89.71
2023-01-19T09:26:33.542Z,89.22
2023-01-19T09:32:53.620Z,89.09
2023-01-19T09:39:16.610Z,88.86
2023-01-19T09:45:36.679Z,88.39
2023-01-19T09:51:59.611Z,88.47
2023-01-19T09:58:19.849Z,88.18
2023-01-19T10:04:42.881Z,88.06
2023-01-19T10:11:02.681Z,87.79
2023-01-19T10:17:25.617Z,87.72
2023-01-19T10:23:45.628Z,87.81
2023-01-19T10:30:08.703Z,87.69
2023-01-19T10:36:28.585Z,88
2023-01-19T10:42:51.757Z,87.99
2023-01-19T10:49:11.599Z,87.91
2023-01-19T10:55:34.693Z,87.95
2023-01-19T11:01:54.775Z,88.22
2023-01-19T11:08:17.658Z,88.5
2023-01-19T11:14:37.587Z,88.37
2023-01-19T11:21:00.611Z,88.21
2023-01-19T11:27:20.634Z,88.12
2023-01-19T11:33:43.686Z,88.03
2023-01-19T11:40:03.863Z,87.77
2023-01-19T11:46:26.579Z,87.29
2023-01-19T11:52:46.571Z,87.11
2023-01-19T11:59:09.620Z,86.71
2023-01-19T12:05:29.595Z,86.14
2023-01-19T12:11:52.568Z,86.11
2023-01-19T12:18:12.604Z,86.15
2023-01-19T12:24:35.605Z,85.51
2023-01-19T12:30:55.716Z,84.89
2023-01-19T12:37:18.651Z,84.8
2023-01-19T12:43:38.679Z,84.81
2023-01-19T12:50:01.585Z,84.03
2023-01-19T12:56:21.643Z,82.18
2023-01-19T13:02:44.724Z,80.79
2023-01-19T13:09:04.650Z,80.23
2023-01-19T13:15:27.734Z,80.53
2023-01-19T13:21:47.574Z,81.28
2023-01-19T13:28:10.578Z,80.21
2023-01-19T13:34:30.674Z,80.42
2023-01-19T13:40:53.638Z,79.79
2023-01-19T13:47:13.565Z,80.19
2023-01-19T13:53:36.717Z,80.56
2023-01-19T13:59:56.586Z,80.52
2023-01-19T14:06:19.608Z,79.54
2023-01-19T14:29:43.105Z,79.09
2023-01-19T14:36:02.583Z,79.24
2023-01-19T14:42:25.656Z,79.36
2023-01-19T14:48:45.601Z,79.84
2023-01-19T14:55:08.969Z,80.27
2023-01-19T15:01:28.736Z,80.66
2023-01-19T15:07:51.652Z,80.74
2023-01-19T15:14:11.674Z,80.95
2023-01-19T15:20:34.593Z,80.65
2023-01-19T15:26:54.606Z,81.21
2023-01-19T15:33:17.634Z,80.88
2023-01-19T15:39:37.597Z,81.68
2023-01-19T15:46:00.745Z,81.21
2023-01-19T15:52:20.913Z,81.18
2023-01-19T15:58:43.629Z,81.76
2023-01-19T16:05:03.588Z,82.19
2023-01-19T16:11:26.614Z,82.39
2023-01-19T16:17:46.573Z,82.66
2023-01-19T16:24:09.700Z,82.41
2023-01-19T16:30:29.612Z,82.4
2023-01-19T16:36:52.608Z,82.35
2023-01-19T16:43:12.619Z,83.89
2023-01-19T16:49:35.620Z,84.36
2023-01-19T16:55:55.559Z,83.99
2023-01-19T17:02:18.691Z,84.25
2023-01-19T17:08:38.570Z,85.6
2023-01-19T17:15:01.661Z,86.05
2023-01-19T17:21:21.661Z,86.25
2023-01-19T17:27:44.617Z,86.56
2023-01-19T17:34:04.660Z,86.82
2023-01-19T17:40:27.606Z,87.07
2023-01-19T17:46:47.582Z,87.57
2023-01-19T17:53:10.632Z,87.69
2023-01-19T17:59:30.587Z,87.76
2023-01-19T18:05:53.652Z,87.77
2023-01-19T18:12:13.645Z,87.7
2023-01-19T18:18:36.596Z,88.19
2023-01-19T18:24:56.704Z,88.22
2023-01-19T18:31:19.932Z,88.46
2023-01-19T18:37:39.627Z,88.76
2023-01-19T18:44:02.653Z,88.48
2023-01-19T18:50:22.665Z,87.85
2023-01-19T18:56:45.696Z,87.92
2023-01-19T19:03:05.597Z,87.09
2023-01-19T19:09:28.576Z,88.18
2023-01-19T19:33:11.517Z,88.73
2023-01-19T19:39:31.568Z,88.94
2023-01-19T19:45:54.576Z,88.59
2023-01-19T19:52:14.670Z,88.88
2023-01-19T19:58:37.630Z,88.89
2023-01-19T20:04:57.622Z,88.58
2023-01-19T20:11:20.616Z,88.57
2023-01-19T20:17:40.664Z,88.72
2023-01-19T20:24:03.643Z,88.99
2023-01-19T20:30:23.671Z,89.05
2023-01-19T20:36:46.601Z,88.72
2023-01-19T20:43:06.567Z,88.85
2023-01-19T20:49:29.590Z,88.81
2023-01-19T20:55:49.610Z,88.98
2023-01-19T21:02:12.776Z,88.77
2023-01-19T21:08:32.691Z,88.77
2023-01-19T21:14:55.595Z,88.53
2023-01-19T21:21:29.254Z,88.93
2023-01-19T21:27:38.853Z,88.95
2023-01-19T21:33:58.849Z,88.81
2023-01-19T21:40:21.654Z,88.47
2023-01-19T21:46:41.624Z,88.57
2023-01-19T21:53:04.632Z,88.28
2023-01-19T21:59:24.666Z,88.48
2023-01-19T22:05:47.648Z,88.36
2023-01-19T22:12:07.687Z,88.97
2023-01-19T22:18:30.593Z,88.81
2023-01-19T22:24:50.704Z,88.52
2023-01-19T22:31:13.733Z,88.3
2023-01-19T22:37:33.640Z,88.3
2023-01-19T22:43:56.643Z,88.54
2023-01-19T22:50:16.588Z,88.31
2023-01-19T22:56:39.662Z,88.47
2023-01-19T23:20:53.641Z,88.11
2023-01-19T23:27:13.552Z,88.36
2023-01-19T23:33:36.571Z,88.19
2023-01-19T23:39:56.612Z,87.85
2023-01-19T23:46:19.669Z,88.28
2023-01-19T23:52:39.650Z,88.1
2023-01-19T23:59:02.674Z,87.81
